createdAt,value
2019-01-28T00:01:24.605Z,98114.45
2019-01-28T00:03:52.902Z,98120.37
2019-01-28T00:06:21.302Z,98119.36
2019-01-28T00:08:49.557Z,98117.03
2019-01-28T00:11:17.908Z,98116.02
2019-01-28T00:13:46.188Z,98119.06
2019-01-28T00:16:14.509Z,98118.03
2019-01-28T00:18:42.820Z,98116.92
2019-01-28T00:21:11.107Z,98117.59
2019-01-28T00:23:39.415Z,98120.81
2019-01-28T00:26:07.708Z,98114.11
2019-01-28T00:28:36.523Z,98111.23
2019-01-28T00:31:05.005Z,98114.81
2019-01-28T00:33:33.257Z,98114.81
2019-01-28T00:36:01.532Z,98107.31
2019-01-28T00:38:29.830Z,98105.44
2019-01-28T00:40:58.116Z,98116.16
2019-01-28T00:43:26.428Z,98106.55
2019-01-28T00:45:54.681Z,98102.66
2019-01-28T00:48:23.028Z,98108.55
2019-01-28T00:50:51.285Z,98101.52
2019-01-28T00:53:19.671Z,98104.20
2019-01-28T00:55:47.955Z,98102.20
2019-01-28T00:58:19.138Z,98099.75
2019-01-28T01:00:47.535Z,98099.75
2019-01-28T01:03:15.785Z,98100.32
2019-01-28T01:05:44.103Z,98101.22
2019-01-28T01:08:12.415Z,98103.67
2019-01-28T01:10:40.780Z,98098.08
2019-01-28T01:13:09.069Z,98099.98
2019-01-28T01:15:37.470Z,98099.41
2019-01-28T01:18:05.728Z,98097.84
2019-01-28T01:20:34.038Z,98102.66
2019-01-28T01:23:02.379Z,98102.86
2019-01-28T01:25:30.656Z,98102.86
2019-01-28T01:27:58.929Z,98108.45
2019-01-28T01:30:27.230Z,98097.88
2019-01-28T01:32:55.619Z,98099.41
2019-01-28T01:35:23.874Z,98099.98
2019-01-28T01:37:52.143Z,98098.31
2019-01-28T01:40:20.495Z,98098.31
2019-01-28T01:42:48.801Z,98098.41
2019-01-28T01:45:18.268Z,98097.07
2019-01-28T01:47:46.573Z,98092.58
2019-01-28T01:50:14.915Z,98093.48
2019-01-28T01:52:43.284Z,98098.27
2019-01-28T01:55:13.101Z,98084.98
2019-01-28T01:57:41.451Z,98091.34
2019-01-28T02:00:15.053Z,98092.38
2019-01-28T02:02:43.412Z,98089.00
2019-01-28T02:05:13.406Z,98091.34
2019-01-28T02:07:41.810Z,98088.09
2019-01-28T02:10:12.682Z,98080.72
2019-01-28T02:12:40.987Z,98085.08
2019-01-28T02:15:15.346Z,98084.27
2019-01-28T02:17:43.651Z,98079.62
2019-01-28T02:20:13.629Z,98080.05
2019-01-28T02:22:41.935Z,98077.95
2019-01-28T02:25:12.312Z,98084.17
2019-01-28T02:27:40.590Z,98076.94
2019-01-28T02:30:11.688Z,98082.50
2019-01-28T02:32:40.000Z,98079.16
2019-01-28T02:35:09.210Z,98088.86
2019-01-28T02:37:37.505Z,98080.92
2019-01-28T02:40:14.432Z,98084.06
2019-01-28T02:42:42.712Z,98087.72
2019-01-28T02:45:13.382Z,98086.04
2019-01-28T02:47:41.791Z,98080.34
2019-01-28T02:50:15.161Z,98073.08
2019-01-28T02:52:43.410Z,98076.66
2019-01-28T02:55:11.834Z,98072.64
2019-01-28T02:57:40.146Z,98083.13
2019-01-28T03:00:14.649Z,98067.69
2019-01-28T03:02:43.009Z,98068.92
2019-01-28T03:05:11.326Z,98072.94
2019-01-28T03:07:39.606Z,98068.45
2019-01-28T03:10:16.503Z,98065.44
2019-01-28T03:12:44.895Z,98064.77
2019-01-28T03:15:13.268Z,98066.34
2019-01-28T03:17:41.566Z,98065.66
2019-01-28T03:20:12.655Z,98065.23
2019-01-28T03:22:41.290Z,98062.19
2019-01-28T03:25:11.948Z,98066.44
2019-01-28T03:27:40.517Z,98061.41
2019-01-28T03:30:12.200Z,98064.53
2019-01-28T03:32:40.490Z,98064.53
2019-01-28T03:35:11.251Z,98066.20
2019-01-28T03:37:39.507Z,98068.88
2019-01-28T03:40:11.003Z,98065.66
2019-01-28T03:42:39.385Z,98066.06
2019-01-28T03:45:13.182Z,98070.74
2019-01-28T03:47:41.468Z,98070.08
2019-01-28T03:50:12.512Z,98070.31
2019-01-28T03:52:41.154Z,98064.73
2019-01-28T03:55:11.488Z,98068.98
2019-01-28T03:57:39.768Z,98063.39
2019-01-28T04:00:17.178Z,98068.20
2019-01-28T04:02:45.399Z,98073.66
2019-01-28T04:05:13.692Z,98072.85
2019-01-28T04:07:41.974Z,98072.65
2019-01-28T04:10:18.733Z,98074.90
2019-01-28T04:12:47.106Z,98075.13
2019-01-28T04:15:17.512Z,98074.80
2019-01-28T04:17:45.810Z,98076.00
2019-01-28T04:20:17.049Z,98076.47
2019-01-28T04:22:45.386Z,98073.23
2019-01-28T04:25:13.774Z,98071.66
2019-01-28T04:27:42.058Z,98073.46
2019-01-28T04:30:22.489Z,98071.55
2019-01-28T04:32:50.951Z,98068.11
2019-01-28T04:35:19.236Z,98067.00
2019-01-28T04:37:47.523Z,98068.88
2019-01-28T04:40:16.341Z,98071.55
2019-01-28T04:42:44.694Z,98072.36
2019-01-28T04:45:19.089Z,98076.05
2019-01-28T04:47:47.988Z,98062.66
2019-01-28T04:50:20.714Z,98070.69
2019-01-28T04:52:49.145Z,98080.27
2019-01-28T04:55:17.554Z,98081.50
2019-01-28T04:57:45.957Z,98069.79
2019-01-28T05:00:25.252Z,98078.83
2019-01-28T05:02:53.664Z,98084.52
2019-01-28T05:05:22.039Z,98085.32
2019-01-28T05:07:50.332Z,98086.42
2019-01-28T05:10:20.048Z,98095.80
2019-01-28T05:12:48.513Z,98091.68
2019-01-28T05:15:19.983Z,98093.45
2019-01-28T05:17:48.372Z,98094.70
2019-01-28T05:20:20.319Z,98102.87
2019-01-28T05:22:48.644Z,98102.30
2019-01-28T05:25:17.595Z,98102.30
2019-01-28T05:27:46.143Z,98103.20
2019-01-28T05:30:22.515Z,98108.23
2019-01-28T05:32:50.842Z,98113.48
2019-01-28T05:35:19.991Z,98117.41
2019-01-28T05:37:48.282Z,98118.65
2019-01-28T05:40:24.451Z,98117.64
2019-01-28T05:42:53.602Z,98117.84
2019-01-28T05:45:23.283Z,98116.20
2019-01-28T05:47:51.672Z,98121.77
2019-01-28T05:50:19.935Z,98131.84
2019-01-28T05:52:48.547Z,98130.03
2019-01-28T05:55:18.298Z,98135.53
2019-01-28T05:57:46.616Z,98142.46
2019-01-28T06:00:24.440Z,98145.02
2019-01-28T06:02:52.827Z,98151.08
2019-01-28T06:05:21.223Z,98150.38
2019-01-28T06:07:49.577Z,98162.03
2019-01-28T06:10:17.931Z,98165.15
2019-01-28T06:12:46.354Z,98173.19
2019-01-28T06:15:19.599Z,98179.45
2019-01-28T06:17:47.910Z,98190.97
2019-01-28T06:20:21.950Z,98193.32
2019-01-28T06:22:50.342Z,98198.67
2019-01-28T06:25:18.626Z,98201.59
2019-01-28T06:27:46.984Z,98212.52
2019-01-28T06:30:21.447Z,98212.52
2019-01-28T06:32:49.873Z,98212.61
2019-01-28T06:35:18.212Z,98218.48
2019-01-28T06:37:46.561Z,98238.53
2019-01-28T06:40:23.734Z,98238.53
2019-01-28T06:42:52.186Z,98242.79
2019-01-28T06:45:20.545Z,98245.23
2019-01-28T06:47:48.993Z,98252.94
2019-01-28T06:50:19.574Z,98254.33
2019-01-28T06:52:47.847Z,98271.03
2019-01-28T06:55:16.443Z,98272.19
2019-01-28T06:57:44.795Z,98278.70
2019-01-28T07:00:33.571Z,98282.91
2019-01-28T07:03:01.888Z,98290.31
2019-01-28T07:05:30.230Z,98280.04
2019-01-28T07:07:58.652Z,98295.88
2019-01-28T07:10:27.015Z,98295.88
2019-01-28T07:12:55.360Z,98305.59
2019-01-28T07:15:23.673Z,98315.53
2019-01-28T07:17:54.924Z,98329.38
2019-01-28T07:20:25.618Z,98329.38
2019-01-28T07:22:53.935Z,98334.89
2019-01-28T07:25:22.271Z,98343.44
2019-01-28T07:27:50.597Z,98349.36
2019-01-28T07:30:25.060Z,98368.95
2019-01-28T07:32:53.330Z,98368.95
2019-01-28T07:35:21.629Z,98375.74
2019-01-28T07:37:49.953Z,98383.22
2019-01-28T07:40:18.328Z,98383.22
2019-01-28T07:42:46.632Z,98386.91
2019-01-28T07:45:26.954Z,98401.53
2019-01-28T07:48:02.422Z,98400.91
2019-01-28T07:50:25.341Z,98410.08
2019-01-28T07:52:53.806Z,98416.12
2019-01-28T07:55:22.115Z,98416.12
2019-01-28T07:57:50.521Z,98432.52
2019-01-28T08:00:21.114Z,98433.14
2019-01-28T08:02:49.424Z,98443.00
2019-01-28T08:05:19.000Z,98451.91
2019-01-28T08:07:47.377Z,98452.14
2019-01-28T08:10:17.610Z,98458.11
2019-01-28T08:12:46.266Z,98464.27
2019-01-28T08:15:23.302Z,98461.27
2019-01-28T08:17:51.745Z,98467.64
2019-01-28T08:20:21.056Z,98473.97
2019-01-28T08:22:49.342Z,98473.97
2019-01-28T08:25:20.269Z,98484.64
2019-01-28T08:27:48.556Z,98486.31
2019-01-28T08:30:25.909Z,98493.79
2019-01-28T08:32:54.667Z,98506.33
2019-01-28T08:35:23.276Z,98500.81
2019-01-28T08:37:51.631Z,98506.50
2019-01-28T08:40:21.980Z,98515.70
2019-01-28T08:42:50.447Z,98514.13
2019-01-28T08:45:18.780Z,98515.70
2019-01-28T08:47:47.097Z,98521.44
2019-01-28T08:50:20.756Z,98523.49
2019-01-28T08:52:49.072Z,98526.11
2019-01-28T08:55:22.201Z,98540.52
2019-01-28T08:57:50.619Z,98540.52
2019-01-28T09:00:39.267Z,98546.36
2019-01-28T09:03:07.711Z,98560.01
2019-01-28T09:05:36.073Z,98568.05
2019-01-28T09:08:04.768Z,98568.05
2019-01-28T09:10:33.560Z,98573.28
2019-01-28T09:13:01.880Z,98576.57
2019-01-28T09:15:30.291Z,98576.57
2019-01-28T09:17:58.548Z,98582.70
2019-01-28T09:20:31.852Z,98582.70
2019-01-28T09:23:00.295Z,98595.66
2019-01-28T09:25:28.589Z,98593.22
2019-01-28T09:27:56.903Z,98601.17
2019-01-28T09:30:27.469Z,98615.43
2019-01-28T09:32:55.740Z,98615.43
2019-01-28T09:35:24.285Z,98617.46
2019-01-28T09:37:52.588Z,98623.92
2019-01-28T09:40:23.701Z,98632.54
2019-01-28T09:42:52.018Z,98632.54
2019-01-28T09:45:22.624Z,98651.69
2019-01-28T09:47:50.912Z,98651.69
2019-01-28T09:50:19.575Z,98655.78
2019-01-28T09:52:48.438Z,98661.38
2019-01-28T09:55:16.732Z,98668.86
2019-01-28T09:57:45.127Z,98671.47
2019-01-28T10:00:29.198Z,98676.27
2019-01-28T10:02:57.755Z,98687.23
2019-01-28T10:05:26.037Z,98693.95
2019-01-28T10:07:54.535Z,98683.37
2019-01-28T10:10:22.843Z,98708.86
2019-01-28T10:12:51.115Z,98711.33
2019-01-28T10:15:28.485Z,98718.77
2019-01-28T10:17:52.891Z,98718.77
2019-01-28T10:20:29.408Z,98727.20
2019-01-28T10:22:57.666Z,98726.58
2019-01-28T10:25:25.946Z,98726.58
2019-01-28T10:27:54.204Z,98731.78
2019-01-28T10:30:25.784Z,98743.98
2019-01-28T10:32:54.190Z,98745.03
2019-01-28T10:35:22.470Z,98743.97
2019-01-28T10:37:50.781Z,98743.97
2019-01-28T10:40:22.549Z,98754.95
2019-01-28T10:42:50.821Z,98754.95
2019-01-28T10:45:19.099Z,98759.50
2019-01-28T10:47:47.410Z,98759.50
2019-01-28T10:50:18.214Z,98769.09
2019-01-28T10:52:46.673Z,98769.33
2019-01-28T10:55:17.555Z,98769.33
2019-01-28T10:57:45.864Z,98786.01
2019-01-28T11:00:28.768Z,98799.93
2019-01-28T11:02:57.411Z,98803.89
2019-01-28T11:05:25.837Z,98803.89
2019-01-28T11:07:54.166Z,98804.45
2019-01-28T11:10:24.914Z,98810.06
2019-01-28T11:12:53.350Z,98810.06
2019-01-28T11:15:24.514Z,98808.30
2019-01-28T11:17:53.223Z,98822.97
2019-01-28T11:20:21.748Z,98828.34
2019-01-28T11:22:50.191Z,98828.34
2019-01-28T11:25:27.720Z,98837.88
2019-01-28T11:27:56.273Z,98842.39
2019-01-28T11:30:38.256Z,98845.06
2019-01-28T11:33:06.720Z,98845.69
2019-01-28T11:35:35.778Z,98845.69
2019-01-28T11:38:05.287Z,98868.55
2019-01-28T11:40:36.664Z,98878.27
2019-01-28T11:43:05.330Z,98884.23
2019-01-28T11:45:36.540Z,98882.44
2019-01-28T11:48:05.566Z,98898.59
2019-01-28T11:50:33.885Z,98905.58
2019-01-28T11:53:02.271Z,98905.13
2019-01-28T11:55:30.723Z,98914.26
2019-01-28T11:57:59.055Z,98920.25
2019-01-28T12:00:34.961Z,98919.30
2019-01-28T12:03:03.360Z,98932.84
2019-01-28T12:05:31.720Z,98930.02
2019-01-28T12:08:00.001Z,98937.92
2019-01-28T12:10:28.404Z,98951.15
2019-01-28T12:12:56.781Z,98963.39
2019-01-28T12:15:25.229Z,98967.13
2019-01-28T12:17:53.578Z,98975.41
2019-01-28T12:20:23.782Z,98973.42
2019-01-28T12:22:52.068Z,98990.91
2019-01-28T12:25:20.670Z,98990.67
2019-01-28T12:27:49.109Z,99005.34
2019-01-28T12:30:31.109Z,99008.28
2019-01-28T12:32:59.562Z,99021.15
2019-01-28T12:35:27.969Z,99019.41
2019-01-28T12:37:56.450Z,99030.71
2019-01-28T12:40:25.721Z,99025.84
2019-01-28T12:42:54.168Z,99036.87
2019-01-28T12:45:26.795Z,99043.26
2019-01-28T12:47:55.200Z,99054.22
2019-01-28T12:50:24.363Z,99066.03
2019-01-28T12:52:52.713Z,99075.12
2019-01-28T12:55:25.162Z,99082.95
2019-01-28T12:57:53.684Z,99082.29
2019-01-28T13:00:36.551Z,99070.80
2019-01-28T13:03:06.086Z,99100.33
2019-01-28T13:05:34.480Z,99098.87
2019-01-28T13:08:06.089Z,99096.47
2019-01-28T13:10:34.467Z,99104.50
2019-01-28T13:13:02.740Z,99120.95
2019-01-28T13:15:32.499Z,99123.87
2019-01-28T13:18:02.621Z,99136.55
2019-01-28T13:20:32.705Z,99129.77
2019-01-28T13:23:02.803Z,99143.97
2019-01-28T13:25:39.358Z,99145.72
2019-01-28T13:28:08.751Z,99141.39
2019-01-28T13:30:38.533Z,99156.80
2019-01-28T13:33:09.154Z,99169.11
2019-01-28T13:35:37.633Z,99178.31
2019-01-28T13:38:06.009Z,99180.95
2019-01-28T13:40:35.789Z,99178.27
2019-01-28T13:43:04.477Z,99177.50
2019-01-28T13:45:34.200Z,99201.67
2019-01-28T13:48:03.880Z,99184.67
2019-01-28T13:50:32.386Z,99199.66
2019-01-28T13:53:03.957Z,99198.88
2019-01-28T13:55:32.309Z,99212.74
2019-01-28T13:58:00.813Z,99206.70
2019-01-28T14:00:30.095Z,99233.49
2019-01-28T14:03:00.298Z,99234.88
2019-01-28T14:05:28.753Z,99248.58
2019-01-28T14:07:57.172Z,99237.00
2019-01-28T14:10:25.840Z,99242.71
2019-01-28T14:12:54.225Z,99251.05
2019-01-28T14:15:37.985Z,99260.93
2019-01-28T14:18:07.814Z,99259.64
2019-01-28T14:20:38.256Z,99271.69
2019-01-28T14:23:06.878Z,99273.91
2019-01-28T14:25:35.267Z,99282.20
2019-01-28T14:28:05.727Z,99286.67
2019-01-28T14:30:42.065Z,99290.78
2019-01-28T14:33:10.503Z,99296.19
2019-01-28T14:35:39.327Z,99315.85
2019-01-28T14:38:10.651Z,99316.96
2019-01-28T14:40:39.826Z,99326.38
2019-01-28T14:43:09.480Z,99330.35
2019-01-28T14:45:37.798Z,99330.66
2019-01-28T14:48:06.965Z,99336.31
2019-01-28T14:50:37.033Z,99348.45
2019-01-28T14:53:05.319Z,99354.92
2019-01-28T14:55:34.054Z,99362.17
2019-01-28T14:58:02.462Z,99364.75
2019-01-28T15:00:41.943Z,99373.94
2019-01-28T15:03:10.271Z,99377.55
2019-01-28T15:05:38.616Z,99387.02
2019-01-28T15:08:09.104Z,99394.83
2019-01-28T15:10:37.988Z,99390.82
2019-01-28T15:13:06.332Z,99392.23
2019-01-28T15:15:36.767Z,99395.75
2019-01-28T15:18:05.858Z,99397.88
2019-01-28T15:20:34.135Z,99400.30
2019-01-28T15:23:02.481Z,99416.60
2019-01-28T15:25:30.905Z,99412.84
2019-01-28T15:27:59.273Z,99420.47
2019-01-28T15:30:29.517Z,99429.58
2019-01-28T15:32:58.004Z,99433.85
2019-01-28T15:35:26.465Z,99428.43
2019-01-28T15:37:54.781Z,99442.55
2019-01-28T15:40:25.973Z,99449.24
2019-01-28T15:42:54.334Z,99446.83
2019-01-28T15:45:27.822Z,99457.20
2019-01-28T15:47:56.356Z,99457.27
2019-01-28T15:50:24.723Z,99456.45
2019-01-28T15:52:53.104Z,99464.60
2019-01-28T15:55:24.048Z,99470.32
2019-01-28T15:57:52.490Z,99467.91
2019-01-28T16:00:26.011Z,99475.90
2019-01-28T16:02:54.455Z,99479.36
2019-01-28T16:05:22.825Z,99483.08
2019-01-28T16:07:51.083Z,99486.02
2019-01-28T16:10:19.507Z,99486.50
2019-01-28T16:12:47.854Z,99498.31
2019-01-28T16:15:25.416Z,99499.14
2019-01-28T16:17:53.722Z,99506.31
2019-01-28T16:20:22.032Z,99510.66
2019-01-28T16:22:50.377Z,99512.62
2019-01-28T16:25:18.713Z,99519.83
2019-01-28T16:27:46.989Z,99525.12
2019-01-28T16:30:26.300Z,99524.89
2019-01-28T16:32:54.354Z,99526.48
2019-01-28T16:35:22.966Z,99539.88
2019-01-28T16:37:52.578Z,99542.58
2019-01-28T16:40:23.025Z,99543.39
2019-01-28T16:42:51.289Z,99546.14
2019-01-28T16:45:19.586Z,99547.15
2019-01-28T16:47:47.852Z,99558.14
2019-01-28T16:50:27.114Z,99554.23
2019-01-28T16:52:54.631Z,99562.25
2019-01-28T16:55:23.171Z,99573.25
2019-01-28T16:57:51.474Z,99579.22
2019-01-28T17:00:28.278Z,99589.69
2019-01-28T17:02:56.566Z,99600.13
2019-01-28T17:05:24.825Z,99600.67
2019-01-28T17:07:53.684Z,99600.38
2019-01-28T17:10:21.957Z,99604.75
2019-01-28T17:12:50.359Z,99605.79
2019-01-28T17:15:22.757Z,99611.98
2019-01-28T17:17:51.056Z,99619.22
2019-01-28T17:20:22.263Z,99622.97
2019-01-28T17:22:50.642Z,99625.63
2019-01-28T17:25:22.045Z,99633.06
2019-01-28T17:27:50.444Z,99636.88
2019-01-28T17:30:24.641Z,99639.58
2019-01-28T17:32:53.251Z,99650.56
2019-01-28T17:35:21.845Z,99652.16
2019-01-28T17:37:50.217Z,99656.45
2019-01-28T17:40:21.656Z,99660.47
2019-01-28T17:42:49.962Z,99665.03
2019-01-28T17:45:19.500Z,99676.02
2019-01-28T17:47:47.918Z,99684.25
2019-01-28T17:50:24.071Z,99689.37
2019-01-28T17:52:46.228Z,99689.11
2019-01-28T17:55:15.558Z,99689.68
2019-01-28T17:57:43.794Z,99689.91
2019-01-28T18:00:15.061Z,99695.50
2019-01-28T18:02:43.307Z,99697.39
2019-01-28T18:05:11.602Z,99697.13
2019-01-28T18:07:39.847Z,99705.94
2019-01-28T18:10:11.365Z,99706.99
2019-01-28T18:12:39.662Z,99706.47
2019-01-28T18:15:11.336Z,99711.27
2019-01-28T18:17:39.576Z,99709.66
2019-01-28T18:20:13.951Z,99712.61
2019-01-28T18:22:43.889Z,99718.48
2019-01-28T18:25:14.095Z,99727.31
2019-01-28T18:27:42.414Z,99732.17
2019-01-28T18:30:32.242Z,99741.55
2019-01-28T18:33:00.512Z,99745.56
2019-01-28T18:35:28.774Z,99754.09
2019-01-28T18:37:57.075Z,99757.05
2019-01-28T18:40:25.360Z,99760.48
2019-01-28T18:42:53.596Z,99759.70
2019-01-28T18:45:21.898Z,99760.59
2019-01-28T18:47:50.132Z,99756.38
2019-01-28T18:50:22.835Z,99760.73
2019-01-28T18:52:51.861Z,99762.65
2019-01-28T18:55:22.179Z,99772.83
2019-01-28T18:57:50.382Z,99777.38
2019-01-28T19:00:32.071Z,99778.47
2019-01-28T19:03:00.318Z,99783.34
2019-01-28T19:05:39.295Z,99784.95
2019-01-28T19:08:09.178Z,99776.94
2019-01-28T19:10:39.086Z,99780.12
2019-01-28T19:13:09.070Z,99790.56
2019-01-28T19:15:44.731Z,99795.10
2019-01-28T19:18:14.664Z,99790.58
2019-01-28T19:20:44.557Z,99796.16
2019-01-28T19:23:12.860Z,99797.25
2019-01-28T19:25:41.102Z,99794.30
2019-01-28T19:28:09.363Z,99810.07
2019-01-28T19:30:37.618Z,99813.04
2019-01-28T19:33:05.892Z,99806.88
2019-01-28T19:35:34.309Z,99812.50
2019-01-28T19:38:02.556Z,99808.77
2019-01-28T19:40:30.851Z,99822.97
2019-01-28T19:42:59.204Z,99816.53
2019-01-28T19:45:27.469Z,99825.66
2019-01-28T19:47:55.768Z,99828.88
2019-01-28T19:50:26.699Z,99832.88
2019-01-28T19:52:54.997Z,99835.83
2019-01-28T19:55:23.287Z,99838.00
2019-01-28T19:57:51.673Z,99850.55
2019-01-28T20:00:26.306Z,99852.98
2019-01-28T20:02:55.112Z,99853.78
2019-01-28T20:05:23.447Z,99853.00
2019-01-28T20:07:51.681Z,99856.45
2019-01-28T20:10:20.049Z,99859.41
2019-01-28T20:12:48.485Z,99862.87
2019-01-28T20:15:22.193Z,99859.14
2019-01-28T20:17:50.541Z,99857.30
2019-01-28T20:20:19.626Z,99862.38
2019-01-28T20:22:47.969Z,99865.60
2019-01-28T20:25:17.540Z,99866.40
2019-01-28T20:27:45.902Z,99869.08
2019-01-28T20:30:19.566Z,99866.16
2019-01-28T20:32:47.913Z,99874.97
2019-01-28T20:35:16.253Z,99880.31
2019-01-28T20:37:44.549Z,99886.45
2019-01-28T20:40:14.330Z,99891.28
2019-01-28T20:42:42.579Z,99895.56
2019-01-28T20:45:25.147Z,99896.08
2019-01-28T20:47:55.320Z,99899.56
2019-01-28T20:50:30.456Z,99900.63
2019-01-28T20:52:58.780Z,99898.75
2019-01-28T20:55:27.143Z,99900.63
2019-01-28T20:57:55.442Z,99899.84
2019-01-28T21:00:26.605Z,99906.52
2019-01-28T21:02:54.886Z,99907.85
2019-01-28T21:05:24.545Z,99906.52
2019-01-28T21:07:52.835Z,99908.64
2019-01-28T21:10:22.058Z,99912.92
2019-01-28T21:12:51.256Z,99923.88
2019-01-28T21:15:19.677Z,99920.42
2019-01-28T21:17:48.527Z,99919.61
2019-01-28T21:20:18.494Z,99931.11
2019-01-28T21:22:47.297Z,99928.68
2019-01-28T21:25:17.720Z,99928.44
2019-01-28T21:27:45.972Z,99930.05
2019-01-28T21:30:20.251Z,99933.51
2019-01-28T21:32:49.256Z,99941.00
2019-01-28T21:35:19.535Z,99948.45
2019-01-28T21:37:49.422Z,99953.25
2019-01-28T21:40:17.672Z,99955.13
2019-01-28T21:42:45.997Z,99953.00
2019-01-28T21:45:15.293Z,99958.61
2019-01-28T21:47:55.547Z,99957.80
2019-01-28T21:50:25.423Z,99966.86
2019-01-28T21:52:53.711Z,99975.14
2019-01-28T21:55:21.953Z,99978.36
2019-01-28T21:57:50.289Z,99969.53
2019-01-28T22:00:18.547Z,99976.20
2019-01-28T22:02:46.943Z,99975.14
2019-01-28T22:05:15.175Z,99977.54
2019-01-28T22:07:43.430Z,99974.08
2019-01-28T22:10:13.740Z,99978.09
2019-01-28T22:12:41.986Z,99985.83
2019-01-28T22:15:15.663Z,99979.94
2019-01-28T22:17:43.916Z,99989.04
2019-01-28T22:20:14.506Z,99986.37
2019-01-28T22:22:42.827Z,99982.61
2019-01-28T22:25:13.297Z,99990.38
2019-01-28T22:27:41.737Z,99993.56
2019-01-28T22:30:21.837Z,99995.17
2019-01-28T22:32:50.108Z,99998.38
2019-01-28T22:35:18.353Z,99995.17
2019-01-28T22:37:46.654Z,99998.63
2019-01-28T22:40:16.782Z,99996.78
2019-01-28T22:42:45.022Z,99995.44
2019-01-28T22:45:20.719Z,100007.72
2019-01-28T22:47:49.022Z,99994.10
2019-01-28T22:50:19.469Z,100000.50
2019-01-28T22:52:47.791Z,100004.23
2019-01-28T22:55:21.236Z,100011.45
2019-01-28T22:57:49.523Z,100013.05
2019-01-28T23:00:36.741Z,100014.39
2019-01-28T23:03:05.713Z,100021.31
2019-01-28T23:05:33.954Z,100025.31
2019-01-28T23:08:02.279Z,100024.52
2019-01-28T23:10:30.521Z,100027.18
2019-01-28T23:12:58.767Z,100030.91
2019-01-28T23:15:27.065Z,100034.13
2019-01-28T23:17:55.314Z,100036.80
2019-01-28T23:20:23.600Z,100035.73
2019-01-28T23:22:51.874Z,100037.34
2019-01-28T23:25:20.112Z,100037.84
2019-01-28T23:27:48.388Z,100045.58
2019-01-28T23:30:17.405Z,100043.45
2019-01-28T23:32:45.726Z,100050.68
2019-01-28T23:35:13.983Z,100056.27
2019-01-28T23:37:42.258Z,100061.88
2019-01-28T23:40:10.607Z,100065.88
2019-01-28T23:42:38.904Z,100056.82
2019-01-28T23:45:09.983Z,100057.61
2019-01-28T23:47:38.236Z,100058.95
2019-01-28T23:50:09.236Z,100070.18
2019-01-28T23:52:37.586Z,100070.18
2019-01-28T23:55:06.968Z,100062.70
2019-01-28T23:57:35.329Z,100072.31
